Time;durP1;ratioP1;P1;durP2;ratioP2;P2;SDS_P1;SDS_P2;PMS_P1;PMS_P2;Temp;Humidity;BMP_temperature;BMP_pressure;BME280_temperature;BME280_humidity;BME280_pressure;Samples;Min_cycle;Max_cycle;Signal;HPM_P1;HPM_P2
2022/05/31 00:01:23;;;;;;;4.75;1.88;;;;;;;22.59;35.29;99717.41;4962528;28;20419;-72
2022/05/31 00:03:49;;;;;;;4.47;1.63;;;;;;;22.93;34.53;99727.44;4995154;28;20053;-73
2022/05/31 00:06:14;;;;;;;2.65;1.60;;;;;;;22.69;34.51;99729.34;4976599;28;20038;-71
2022/05/31 00:08:40;;;;;;;4.75;1.80;;;;;;;22.52;34.82;99717.53;4975552;28;20042;-71
2022/05/31 00:11:07;;;;;;;7.03;1.77;;;;;;;22.48;35.07;99720.91;4991206;28;20185;-71
2022/05/31 00:13:32;;;;;;;4.63;1.95;;;;;;;22.71;34.86;99720.97;4991248;28;20045;-74
2022/05/31 00:16:00;;;;;;;2.08;1.52;;;;;;;22.63;34.61;99710.50;5008126;28;20038;-72
2022/05/31 00:18:26;;;;;;;5.00;1.83;;;;;;;22.73;35.01;99729.69;4975158;28;20423;-73
2022/05/31 00:20:52;;;;;;;5.22;1.80;;;;;;;22.71;35.34;99731.81;4975180;28;20041;-73
2022/05/31 00:23:19;;;;;;;9.73;2.10;;;;;;;23.08;34.77;99734.06;4976981;28;20500;-74
2022/05/31 00:25:47;;;;;;;3.42;1.90;;;;;;;22.88;34.54;99739.00;5009906;28;20126;-72
2022/05/31 00:28:13;;;;;;;6.32;1.58;;;;;;;23.09;34.66;99741.09;5009219;28;20686;-70
2022/05/31 00:30:40;;;;;;;3.22;1.75;;;;;;;22.95;34.87;99722.63;4993471;28;20046;-71
2022/05/31 00:33:06;;;;;;;9.20;2.00;;;;;;;23.10;34.87;99715.69;5009647;28;20092;-70
2022/05/31 00:35:36;;;;;;;2.85;1.70;;;;;;;23.27;35.20;99734.78;5009363;28;20115;-70
2022/05/31 00:38:02;;;;;;;3.63;1.92;;;;;;;23.05;35.21;99736.41;5010353;28;20050;-70
2022/05/31 00:40:30;;;;;;;8.95;1.85;;;;;;;22.96;35.83;99740.53;4976608;28;20042;-70
2022/05/31 00:43:02;;;;;;;5.07;1.80;;;;;;;22.63;36.54;99735.66;5010173;28;20140;-70
2022/05/31 00:45:41;;;;;;;4.93;1.63;;;;;;;22.71;36.10;99738.03;5009439;28;20042;-70
2022/05/31 00:48:13;;;;;;;3.88;1.55;;;;;;;22.48;37.27;99737.97;4993064;28;20088;-70
2022/05/31 00:50:46;;;;;;;7.80;2.00;;;;;;;22.27;37.50;99735.81;4993425;28;20053;-70
2022/05/31 00:53:22;;;;;;;3.42;1.50;;;;;;;22.28;37.70;99733.94;4993291;28;20499;-70
2022/05/31 00:55:51;;;;;;;5.35;1.70;;;;;;;22.29;37.59;99744.53;5009047;28;20042;-70
2022/05/31 00:58:29;;;;;;;2.60;1.58;;;;;;;22.23;37.64;99731.91;5024896;28;20153;-73
2022/05/31 01:00:56;;;;;;;5.10;2.15;;;;;;;21.97;38.23;99735.00;4958280;28;20057;-73
2022/05/31 01:03:23;;;;;;;6.07;1.70;;;;;;;21.93;38.61;99736.50;4990436;28;20046;-71
2022/05/31 01:05:49;;;;;;;4.13;1.80;;;;;;;22.03;37.66;99734.06;5006809;28;20053;-72
2022/05/31 01:08:15;;;;;;;5.00;1.92;;;;;;;21.94;38.28;99730.00;5010882;28;20046;-72
2022/05/31 01:11:02;;;;;;;6.50;1.92;;;;;;;21.99;38.59;99735.56;4996400;28;20169;-75
2022/05/31 01:13:51;;;;;;;5.65;1.90;;;;;;;22.02;38.67;99743.22;4994872;28;20124;-74
2022/05/31 01:16:35;;;;;;;4.28;2.33;;;;;;;21.77;38.56;99745.25;4983916;28;20414;-71
2022/05/31 01:22:07;;;;;;;3.15;1.80;;;;;;;21.77;38.42;99745.25;4982127;28;20042;-71
2022/05/31 01:24:54;;;;;;;3.40;1.90;;;;;;;22.13;37.87;99747.88;4981413;28;20041;-73
2022/05/31 01:27:41;;;;;;;4.25;2.15;;;;;;;21.90;38.15;99730.69;5012823;28;20053;-73
2022/05/31 01:30:08;;;;;;;5.05;2.30;;;;;;;21.84;38.73;99739.72;5013887;28;20065;-73
2022/05/31 01:32:41;;;;;;;7.07;2.70;;;;;;;22.10;38.07;99712.31;4964431;28;20431;-72
2022/05/31 01:35:12;;;;;;;6.95;1.90;;;;;;;22.31;37.64;99739.69;4964491;28;20068;-72
2022/05/31 01:37:38;;;;;;;4.38;1.92;;;;;;;21.83;38.06;99765.97;4996397;28;20050;-72
2022/05/31 01:40:09;;;;;;;2.63;1.92;;;;;;;21.99;38.40;99716.63;5012686;28;20050;-74
2022/05/31 01:42:42;;;;;;;5.15;2.00;;;;;;;22.27;38.10;99737.66;4979666;28;20188;-73
2022/05/31 01:45:12;;;;;;;2.97;2.20;;;;;;;22.50;37.33;99753.97;5012477;28;20041;-72
2022/05/31 01:47:38;;;;;;;7.07;2.75;;;;;;;22.01;38.35;99759.69;4995986;28;20046;-71
2022/05/31 01:50:09;;;;;;;5.07;1.95;;;;;;;22.45;37.69;99753.88;4996222;28;20053;-74
2022/05/31 01:52:35;;;;;;;2.80;2.03;;;;;;;22.15;38.15;99753.88;5011928;28;20507;-71
2022/05/31 01:55:02;;;;;;;8.45;2.20;;;;;;;22.45;37.61;99740.34;4963661;28;20073;-75
2022/05/31 01:57:30;;;;;;;3.47;1.98;;;;;;;22.56;37.83;99740.38;4995968;28;20061;-71
2022/05/31 02:00:00;;;;;;;5.50;2.53;;;;;;;22.45;38.00;99749.25;5012183;28;20095;-72
2022/05/31 02:02:26;;;;;;;4.28;2.15;;;;;;;22.32;38.23;99745.94;4995580;28;20079;-72
2022/05/31 02:04:54;;;;;;;3.92;2.10;;;;;;;22.12;39.15;99754.34;4995789;28;20511;-72
2022/05/31 02:07:22;;;;;;;2.92;2.30;;;;;;;22.37;38.49;99757.69;4995486;28;20045;-74
2022/05/31 02:09:52;;;;;;;4.17;2.10;;;;;;;22.19;38.87;99752.34;5013060;28;20495;-74
2022/05/31 02:12:25;;;;;;;4.85;2.13;;;;;;;21.98;39.60;99754.72;4996170;28;20273;-72
2022/05/31 02:15:24;;;;;;;2.88;2.13;;;;;;;22.05;39.22;99758.19;4982666;28;20045;-73
2022/05/31 02:18:12;;;;;;;3.92;1.73;;;;;;;22.10;39.32;99748.31;5012292;28;20053;-73
2022/05/31 02:20:58;;;;;;;2.38;1.90;;;;;;;22.05;38.93;99753.59;5005431;28;20045;-73
2022/05/31 02:23:24;;;;;;;4.28;2.28;;;;;;;22.32;39.03;99754.06;4979070;28;20107;-70
2022/05/31 02:25:51;;;;;;;6.72;2.20;;;;;;;22.32;38.68;99754.88;5011646;28;20044;-72
2022/05/31 02:28:17;;;;;;;4.80;2.03;;;;;;;22.08;39.67;99766.66;4995281;28;20045;-73
2022/05/31 02:30:44;;;;;;;5.50;2.70;;;;;;;22.64;38.66;99769.00;4963455;28;20364;-72
2022/05/31 02:33:09;;;;;;;6.75;2.40;;;;;;;22.38;38.85;99742.31;4995466;28;20073;-71
2022/05/31 02:35:35;;;;;;;2.70;2.13;;;;;;;22.61;38.48;99770.28;4978869;28;20499;-73
2022/05/31 02:38:01;;;;;;;7.88;2.28;;;;;;;22.78;37.95;99782.09;4995746;28;20054;-71
2022/05/31 02:40:27;;;;;;;3.75;1.90;;;;;;;22.74;38.27;99771.97;4995280;28;20046;-72
2022/05/31 02:42:53;;;;;;;5.57;2.13;;;;;;;22.64;38.70;99764.41;5010973;28;20073;-73
2022/05/31 02:45:19;;;;;;;6.25;2.00;;;;;;;22.61;38.01;99750.50;4978399;28;20053;-71
2022/05/31 02:47:46;;;;;;;4.43;2.08;;;;;;;22.65;38.15;99774.16;4995419;28;20384;-73
2022/05/31 02:50:12;;;;;;;5.78;2.28;;;;;;;22.38;38.67;99758.53;5011925;28;20106;-73
2022/05/31 02:52:38;;;;;;;4.45;2.13;;;;;;;22.24;39.28;99779.56;5010928;28;20493;-73
2022/05/31 02:55:04;;;;;;;3.10;2.00;;;;;;;22.57;38.54;99781.81;4962085;28;20070;-74
2022/05/31 02:57:30;;;;;;;4.65;1.90;;;;;;;22.38;39.51;99775.59;5011716;28;20064;-72
2022/05/31 03:00:15;;;;;;;3.53;1.98;;;;;;;22.18;39.51;99766.94;5011107;28;20041;-73
2022/05/31 03:03:00;;;;;;;4.07;2.10;;;;;;;22.38;39.20;99789.16;5011844;28;20042;-72
2022/05/31 03:05:44;;;;;;;3.80;1.83;;;;;;;21.87;40.11;99764.44;5013903;28;20400;-71
2022/05/31 03:08:27;;;;;;;2.83;1.80;;;;;;;22.24;39.46;99774.16;4966566;28;20057;-71
2022/05/31 03:11:05;;;;;;;4.30;1.85;;;;;;;22.24;39.89;99784.13;4964448;28;20145;-71
2022/05/31 03:13:31;;;;;;;5.60;2.00;;;;;;;22.37;39.97;99795.59;4977985;28;20443;-71
2022/05/31 03:16:00;;;;;;;2.65;1.90;;;;;;;22.32;39.94;99756.75;5010288;28;20053;-71
2022/05/31 03:18:32;;;;;;;6.50;1.90;;;;;;;22.41;40.41;99794.09;4993877;28;20084;-71
2022/05/31 03:21:00;;;;;;;4.10;1.80;;;;;;;22.14;40.36;99784.66;4961284;28;20501;-71
2022/05/31 03:23:33;;;;;;;4.25;2.10;;;;;;;22.21;41.07;99798.97;4961802;28;20423;-71
2022/05/31 03:26:03;;;;;;;4.10;2.00;;;;;;;22.14;40.72;99795.50;4994056;28;20515;-71
2022/05/31 03:28:29;;;;;;;4.78;1.98;;;;;;;21.94;41.42;99802.22;5010647;28;20046;-71
2022/05/31 03:30:57;;;;;;;8.18;2.20;;;;;;;21.87;41.42;99801.47;5010036;28;20038;-71
2022/05/31 03:33:23;;;;;;;4.57;1.90;;;;;;;21.47;41.69;99804.59;4978051;28;20095;-71
2022/05/31 03:35:51;;;;;;;5.55;2.20;;;;;;;21.46;42.04;99796.72;5010331;28;20041;-71
2022/05/31 03:38:31;;;;;;;21.65;2.30;;;;;;;21.37;44.56;99801.59;4981586;28;20057;-71
2022/05/31 03:40:58;;;;;;;3.97;1.85;;;;;;;21.13;46.97;99807.00;4977631;28;20050;-71
2022/05/31 03:43:34;;;;;;;4.13;2.03;;;;;;;21.07;45.25;99807.91;4994969;28;20490;-72
2022/05/31 03:46:18;;;;;;;4.90;2.00;;;;;;;20.82;45.56;99815.16;5010072;28;20038;-72
2022/05/31 03:49:04;;;;;;;3.80;1.58;;;;;;;20.58;46.42;99797.88;5008982;28;20054;-71
2022/05/31 03:51:49;;;;;;;3.30;1.73;;;;;;;20.74;45.54;99818.94;5007396;28;20399;-71
2022/05/31 03:54:23;;;;;;;4.18;1.77;;;;;;;20.69;45.16;99815.25;4994335;28;20096;-73
2022/05/31 03:57:12;;;;;;;3.83;1.70;;;;;;;20.56;45.49;99791.06;5009675;28;20049;-72
2022/05/31 03:59:39;;;;;;;3.83;2.00;;;;;;;20.69;46.02;99799.88;4993441;28;20503;-72
2022/05/31 04:02:06;;;;;;;6.05;1.90;;;;;;;20.78;45.66;99806.66;4993645;28;20080;-73
2022/05/31 04:04:33;;;;;;;2.13;1.77;;;;;;;21.08;45.33;99785.28;4977194;28;20136;-70
2022/05/31 04:07:00;;;;;;;3.03;1.90;;;;;;;21.00;44.81;99799.84;5009812;28;20042;-71
2022/05/31 04:09:26;;;;;;;4.78;1.63;;;;;;;20.83;44.89;99811.41;4993432;28;20042;-71
2022/05/31 04:11:56;;;;;;;2.92;1.65;;;;;;;20.93;45.57;99800.94;5009429;28;20050;-70
2022/05/31 04:14:41;;;;;;;6.00;1.65;;;;;;;21.22;44.56;99797.56;5012307;28;20069;-72
2022/05/31 04:17:07;;;;;;;4.15;1.80;;;;;;;21.00;43.98;99790.94;5009194;28;20495;-72
2022/05/31 04:19:33;;;;;;;6.88;1.92;;;;;;;21.36;44.66;99785.59;4977257;28;20045;-71
2022/05/31 04:22:00;;;;;;;2.63;1.95;;;;;;;21.01;44.47;99789.88;4993347;28;20533;-71
2022/05/31 04:24:25;;;;;;;3.35;1.88;;;;;;;21.43;43.65;99795.28;5009011;28;20136;-71
2022/05/31 04:27:16;;;;;;;2.95;1.90;;;;;;;21.58;43.53;99771.44;4985332;28;20156;-72
2022/05/31 04:30:00;;;;;;;5.28;1.80;;;;;;;21.26;43.83;99772.63;5009861;28;20045;-72
2022/05/31 04:32:58;;;;;;;4.13;1.80;;;;;;;21.40;43.62;99776.81;4985268;28;20525;-72
2022/05/31 04:35:32;;;;;;;7.80;1.73;;;;;;;21.35;43.33;99751.53;5008222;28;20541;-72
2022/05/31 04:37:58;;;;;;;2.30;1.65;;;;;;;21.44;43.23;99763.69;4960830;28;20042;-72
2022/05/31 04:40:46;;;;;;;3.75;1.88;;;;;;;21.45;43.08;99749.94;4982688;28;20045;-72
2022/05/31 04:43:18;;;;;;;4.57;1.65;;;;;;;21.13;43.75;99766.50;5025171;28;20053;-71
2022/05/31 04:46:18;;;;;;;2.78;1.83;;;;;;;21.41;43.25;99775.78;4986238;28;20042;-72
2022/05/31 04:48:57;;;;;;;3.10;1.83;;;;;;;21.94;42.54;99776.00;4979757;28;20108;-72
2022/05/31 04:51:29;;;;;;;4.40;1.70;;;;;;;21.83;42.69;99775.94;4961676;28;20042;-73
2022/05/31 04:53:58;;;;;;;5.13;2.00;;;;;;;21.68;42.78;99782.53;4977930;28;20058;-72
2022/05/31 04:56:44;;;;;;;3.03;1.73;;;;;;;21.97;42.16;99772.03;4982316;28;20054;-72
2022/05/31 04:59:11;;;;;;;2.30;1.80;;;;;;;21.79;42.70;99802.59;4973240;28;20077;-72
2022/05/31 05:01:39;;;;;;;4.15;1.80;;;;;;;21.75;42.10;99828.47;4975767;28;20038;-72
2022/05/31 05:04:17;;;;;;;5.47;2.03;;;;;;;21.56;43.51;99807.84;5008024;28;20072;-72
2022/05/31 05:06:52;;;;;;;9.15;1.88;;;;;;;21.44;43.50;99798.81;4963169;28;20046;-72
2022/05/31 05:09:21;;;;;;;4.72;2.08;;;;;;;21.61;43.15;99818.81;4962095;28;20046;-71
2022/05/31 05:12:05;;;;;;;4.53;2.00;;;;;;;21.67;43.84;99788.16;4996384;28;20050;-72
2022/05/31 05:14:36;;;;;;;4.07;1.90;;;;;;;21.92;42.76;99810.56;5009088;28;20081;-72
2022/05/31 05:17:11;;;;;;;6.25;2.00;;;;;;;22.05;42.86;99791.47;4981408;28;20108;-72
2022/05/31 05:19:43;;;;;;;5.10;2.13;;;;;;;22.02;42.56;99761.34;5024965;28;20049;-71
2022/05/31 05:22:08;;;;;;;5.10;2.20;;;;;;;22.04;42.52;99770.03;5008572;28;20045;-72
2022/05/31 05:24:35;;;;;;;5.03;2.20;;;;;;;22.15;42.97;99770.13;4975459;28;20049;-72
2022/05/31 05:27:19;;;;;;;4.20;2.20;;;;;;;22.12;42.25;99775.97;5021559;28;20484;-72
2022/05/31 05:32:53;;;;;;;3.13;1.70;;;;;;;21.87;42.00;99761.75;5007850;28;20096;-71
2022/05/31 05:35:32;;;;;;;3.38;2.03;;;;;;;21.91;42.22;99749.41;5008462;28;20500;-71
2022/05/31 05:38:08;;;;;;;7.63;2.10;;;;;;;22.23;42.31;99763.56;4993096;28;20042;-71
2022/05/31 05:40:54;;;;;;;4.38;2.20;;;;;;;22.06;42.73;99776.06;4994166;28;20049;-71
2022/05/31 05:43:21;;;;;;;4.05;2.03;;;;;;;21.77;43.12;99757.94;5008136;28;20049;-70
2022/05/31 05:45:56;;;;;;;3.33;2.17;;;;;;;22.12;42.59;99765.16;4961907;28;20561;-71
2022/05/31 05:48:22;;;;;;;6.90;2.63;;;;;;;22.15;42.84;99759.28;5008506;28;20045;-68
2022/05/31 05:50:48;;;;;;;11.15;2.45;;;;;;;21.99;42.81;99759.91;5008499;28;20072;-70
2022/05/31 05:53:33;;;;;;;3.88;1.90;;;;;;;21.98;42.97;99763.69;5010952;28;20053;-70
2022/05/31 05:56:17;;;;;;;5.65;2.03;;;;;;;21.94;43.16;99761.66;4984312;28;20092;-71
2022/05/31 05:59:02;;;;;;;3.35;2.00;;;;;;;22.08;43.48;99758.53;4984120;28;20140;-71
2022/05/31 06:02:08;;;;;;;;;;;;;;;22.66;42.09;99762.31;5000436;28;20073;-70
2022/05/31 06:05:16;;;;;;;8.02;1.80;;;;;;;22.29;42.60;99763.47;4973639;28;19921;-70
2022/05/31 06:07:50;;;;;;;3.40;1.98;;;;;;;22.00;43.43;99764.28;5010744;28;20049;-70
2022/05/31 06:10:23;;;;;;;3.60;2.20;;;;;;;22.03;43.58;99773.81;4978197;28;20583;-70
2022/05/31 06:13:09;;;;;;;2.35;2.03;;;;;;;22.00;44.14;99775.09;4993595;28;20093;-69
2022/05/31 06:15:40;;;;;;;12.18;2.22;;;;;;;21.79;44.27;99756.66;4961993;28;20061;-70
2022/05/31 06:18:11;;;;;;;7.85;2.75;;;;;;;21.66;44.89;99770.31;4994147;28;20602;-70
2022/05/31 06:20:37;;;;;;;5.45;2.50;;;;;;;21.36;45.41;99763.97;4977604;28;20367;-71
2022/05/31 06:23:05;;;;;;;4.30;2.70;;;;;;;21.76;45.78;99756.28;4977919;28;20073;-70
2022/05/31 06:25:31;;;;;;;4.70;2.42;;;;;;;21.55;45.80;99752.13;4977781;28;20503;-70
2022/05/31 06:28:26;;;;;;;8.13;2.65;;;;;;;21.86;45.58;99753.84;4997273;28;20053;-72
2022/05/31 06:30:52;;;;;;;7.72;2.58;;;;;;;21.57;45.55;99739.22;4977807;28;20431;-70
2022/05/31 06:33:18;;;;;;;9.50;2.80;;;;;;;21.94;45.39;99751.66;4994275;28;20052;-71
2022/05/31 06:35:47;;;;;;;4.88;2.70;;;;;;;21.74;45.78;99737.56;4978461;28;20034;-70
2022/05/31 06:38:16;;;;;;;5.50;2.03;;;;;;;21.64;45.28;99740.78;4993628;28;20045;-70
2022/05/31 06:40:42;;;;;;;7.20;2.60;;;;;;;22.13;44.76;99744.31;4994097;28;20050;-70
2022/05/31 06:43:38;;;;;;;5.03;2.58;;;;;;;21.92;45.93;99739.44;4980981;28;20069;-71
2022/05/31 06:46:22;;;;;;;5.35;2.83;;;;;;;22.22;45.59;99749.19;5012853;28;20041;-69
2022/05/31 06:49:06;;;;;;;8.07;3.25;;;;;;;22.06;45.07;99746.31;5011666;28;20577;-69
2022/05/31 06:58:07;;;;;;;6.55;2.70;;;;;;;22.29;45.08;99741.81;4999279;28;20932;-69
2022/05/31 07:00:37;;;;;;;5.57;2.60;;;;;;;22.40;44.85;99730.16;4992570;28;20054;-71
2022/05/31 07:03:04;;;;;;;5.55;2.25;;;;;;;22.66;44.45;99748.75;5009091;28;20130;-70
2022/05/31 07:05:38;;;;;;;5.53;2.55;;;;;;;22.45;44.28;99734.91;4993720;28;20038;-69
2022/05/31 07:08:05;;;;;;;3.17;2.30;;;;;;;22.90;43.57;99733.34;4993338;28;20096;-70
2022/05/31 07:10:51;;;;;;;5.20;2.20;;;;;;;23.03;42.80;99731.22;5001926;28;20053;-70
2022/05/31 07:13:18;;;;;;;6.00;2.28;;;;;;;22.95;43.09;99722.63;5008269;28;20464;-71
2022/05/31 07:16:02;;;;;;;5.82;2.08;;;;;;;22.86;42.87;99734.88;4995569;28;20042;-70
2022/05/31 07:18:49;;;;;;;4.60;1.90;;;;;;;23.44;41.38;99749.25;5009042;28;20052;-70
2022/05/31 07:21:15;;;;;;;4.95;2.03;;;;;;;23.66;41.19;99746.75;4992497;28;20492;-70
2022/05/31 07:23:41;;;;;;;6.70;2.10;;;;;;;24.07;40.64;99746.50;4976138;28;20069;-71
2022/05/31 07:26:09;;;;;;;10.50;2.20;;;;;;;24.38;39.51;99763.13;4994695;28;20045;-71
2022/05/31 07:28:35;;;;;;;3.10;2.05;;;;;;;24.14;40.01;99758.06;4992629;28;20051;-70
2022/05/31 07:31:02;;;;;;;4.95;2.00;;;;;;;24.46;39.57;99756.47;4992835;28;20046;-70
2022/05/31 07:33:34;;;;;;;4.13;2.00;;;;;;;24.73;38.66;99755.63;4993534;28;20042;-69
2022/05/31 07:36:03;;;;;;;6.47;2.13;;;;;;;25.08;38.54;99763.50;4993550;28;20103;-69
2022/05/31 07:38:30;;;;;;;3.97;1.70;;;;;;;25.23;37.95;99755.59;4992911;28;20140;-71
2022/05/31 07:40:56;;;;;;;7.20;1.83;;;;;;;24.94;38.71;99751.31;4992495;28;20046;-70
2022/05/31 07:43:22;;;;;;;5.03;1.92;;;;;;;25.56;37.54;99752.00;5009180;28;20508;-71
2022/05/31 07:46:06;;;;;;;9.63;2.10;;;;;;;26.01;36.98;99753.41;4993180;28;20038;-72
2022/05/31 07:48:37;;;;;;;6.07;2.00;;;;;;;26.11;36.21;99733.63;4992918;28;20056;-71
2022/05/31 07:51:26;;;;;;;4.53;2.15;;;;;;;25.99;36.07;99752.84;4995523;28;20080;-72
2022/05/31 07:54:12;;;;;;;4.38;2.20;;;;;;;25.55;36.83;99756.63;5004080;28;20041;-71
2022/05/31 07:56:56;;;;;;;3.22;2.03;;;;;;;25.31;37.69;99755.16;5018064;28;20038;-71
2022/05/31 07:59:41;;;;;;;4.93;2.00;;;;;;;24.40;38.49;99760.19;5005265;28;20038;-70
2022/05/31 08:02:31;;;;;;;5.22;2.50;;;;;;;24.64;38.70;99753.53;5005273;28;20045;-71
2022/05/31 08:04:56;;;;;;;4.18;2.60;;;;;;;24.61;38.53;99740.44;5016395;28;20589;-72
2022/05/31 08:07:22;;;;;;;4.38;2.92;;;;;;;24.92;38.18;99751.56;5004878;28;20136;-72
2022/05/31 08:09:49;;;;;;;11.57;3.17;;;;;;;25.02;37.64;99737.31;5012057;28;20041;-73
2022/05/31 08:12:15;;;;;;;4.55;3.03;;;;;;;25.12;37.37;99751.09;4994959;28;20104;-71
2022/05/31 08:14:40;;;;;;;13.23;4.57;;;;;;;25.13;37.94;99743.72;4978619;28;20425;-69
2022/05/31 08:17:07;;;;;;;7.88;4.65;;;;;;;25.02;37.88;99748.19;5025195;28;20037;-71
2022/05/31 08:19:32;;;;;;;5.72;3.58;;;;;;;25.14;38.12;99756.28;5008025;28;20416;-71
2022/05/31 08:21:58;;;;;;;10.23;4.07;;;;;;;25.31;37.62;99741.56;4991174;28;20414;-70
2022/05/31 08:24:24;;;;;;;8.15;3.58;;;;;;;25.41;37.74;99757.22;4991582;28;20045;-71
2022/05/31 08:26:51;;;;;;;5.15;3.72;;;;;;;25.47;37.49;99738.00;5007945;28;20055;-71
2022/05/31 08:29:17;;;;;;;8.52;4.55;;;;;;;25.18;38.41;99746.53;4998244;28;20085;-69
2022/05/31 08:31:43;;;;;;;10.10;4.82;;;;;;;24.49;39.89;99715.25;4953880;28;20089;-72
2022/05/31 08:34:09;;;;;;;7.20;4.53;;;;;;;25.16;39.16;99748.66;4956046;28;20089;-71
2022/05/31 08:36:35;;;;;;;10.93;4.55;;;;;;;24.99;39.11;99740.53;5004790;28;20539;-72
2022/05/31 08:39:02;;;;;;;7.57;4.68;;;;;;;24.89;39.47;99724.91;4956187;28;20193;-70
2022/05/31 08:41:44;;;;;;;11.23;5.70;;;;;;;24.96;39.98;99738.31;5004348;28;20042;-74
2022/05/31 08:44:15;;;;;;;12.43;5.90;;;;;;;25.40;39.02;99736.56;4972039;28;20038;-72
2022/05/31 08:47:01;;;;;;;9.52;5.68;;;;;;;25.34;39.75;99743.00;4988527;28;20043;-71
2022/05/31 08:51:52;;;;;;;13.30;5.68;;;;;;;24.88;39.65;99739.56;4988273;28;20050;-72
2022/05/31 08:52:35;;;;;;;7.05;5.70;;;;;;;25.19;39.13;99721.81;4971950;28;20050;-72
2022/05/31 08:57:56;;;;;;;13.13;4.90;;;;;;;25.60;38.58;99734.09;4958291;28;20074;-71
2022/05/31 09:00:28;;;;;;;12.98;4.97;;;;;;;26.17;37.36;99735.34;4982440;28;20139;-71
2022/05/31 09:03:13;;;;;;;13.13;4.15;;;;;;;26.05;37.00;99731.94;5007649;28;20041;-71
2022/05/31 09:05:50;;;;;;;15.60;4.43;;;;;;;26.23;36.99;99745.22;4975237;28;20468;-72
2022/05/31 09:08:24;;;;;;;14.95;4.85;;;;;;;26.52;36.73;99734.84;4991056;28;20060;-72
2022/05/31 09:11:13;;;;;;;11.93;3.97;;;;;;;25.86;37.19;99745.03;5007455;28;20046;-73
2022/05/31 09:13:42;;;;;;;15.20;4.63;;;;;;;25.96;37.33;99738.88;4974491;28;20046;-72
2022/05/31 09:16:39;;;;;;;13.85;4.25;;;;;;;26.18;36.71;99737.00;5007798;28;20057;-71
2022/05/31 09:19:08;;;;;;;5.78;3.53;;;;;;;26.05;36.98;99737.38;5007822;28;20050;-71
2022/05/31 09:21:43;;;;;;;11.55;3.92;;;;;;;26.06;37.00;99728.16;4991910;28;20069;-71
2022/05/31 09:24:18;;;;;;;11.20;4.03;;;;;;;25.80;37.50;99731.63;4992992;28;20041;-72
2022/05/31 09:27:02;;;;;;;6.25;3.88;;;;;;;25.73;37.50;99737.25;5025022;28;20038;-71
2022/05/31 09:29:34;;;;;;;10.95;3.65;;;;;;;25.42;37.72;99732.50;4979959;28;20054;-72
2022/05/31 09:32:18;;;;;;;6.68;3.70;;;;;;;26.08;37.02;99736.88;4994736;28;20041;-70
2022/05/31 09:34:44;;;;;;;7.05;3.70;;;;;;;25.97;36.58;99746.78;5010970;28;20113;-72
2022/05/31 09:37:24;;;;;;;10.20;3.88;;;;;;;26.32;36.21;99744.47;5010902;28;20046;-73
2022/05/31 09:40:15;;;;;;;7.72;3.42;;;;;;;26.32;36.20;99751.84;5010731;28;20773;-73
2022/05/31 09:42:53;;;;;;;9.55;3.55;;;;;;;26.04;36.53;99731.13;4994443;28;20168;-74
2022/05/31 09:45:20;;;;;;;7.43;4.43;;;;;;;25.83;37.10;99744.72;4994908;28;20052;-73
2022/05/31 09:47:48;;;;;;;4.82;3.80;;;;;;;25.81;36.73;99742.25;4976800;28;20898;-73
2022/05/31 09:50:24;;;;;;;8.30;3.95;;;;;;;26.15;36.03;99738.34;4992685;28;20052;-73
2022/05/31 09:52:56;;;;;;;8.15;4.15;;;;;;;25.71;37.15;99744.03;5025839;28;20045;-74
2022/05/31 09:59:08;;;;;;;5.80;4.03;;;;;;;26.85;35.03;99753.72;5000800;28;20054;-73
2022/05/31 10:01:53;;;;;;;6.70;4.05;;;;;;;27.03;34.45;99739.69;5009828;28;20289;-73
2022/05/31 10:04:26;;;;;;;6.15;3.90;;;;;;;27.70;33.27;99740.63;5009862;28;20422;-73
2022/05/31 10:06:57;;;;;;;7.82;3.45;;;;;;;27.92;32.94;99755.75;5010715;28;20053;-73
2022/05/31 10:09:43;;;;;;;8.50;3.50;;;;;;;28.03;32.14;99742.97;4994465;28;20072;-73
2022/05/31 10:12:26;;;;;;;7.72;3.72;;;;;;;27.57;32.81;99747.38;5009510;28;20095;-73
2022/05/31 10:14:54;;;;;;;6.25;3.95;;;;;;;27.06;33.63;99737.22;5010064;28;20050;-73
2022/05/31 10:17:41;;;;;;;6.43;3.63;;;;;;;27.01;34.01;99739.09;4996553;28;20077;-73
2022/05/31 10:20:22;;;;;;;6.00;3.72;;;;;;;26.35;34.98;99735.78;5002981;28;20049;-73
2022/05/31 10:23:01;;;;;;;11.57;4.25;;;;;;;26.29;35.96;99723.19;4987709;28;20040;-73
2022/05/31 10:25:49;;;;;;;4.65;3.42;;;;;;;26.43;35.39;99724.44;5018880;28;20060;-73
2022/05/31 10:29:06;;;;;;;8.88;3.80;;;;;;;26.49;34.93;99711.69;4982807;28;20065;-72
2022/05/31 10:31:51;;;;;;;7.90;3.97;;;;;;;26.09;35.87;99728.44;4992255;28;20046;-73
2022/05/31 10:34:40;;;;;;;6.63;3.95;;;;;;;26.43;35.67;99737.25;5009254;28;20040;-73
2022/05/31 10:37:24;;;;;;;7.47;3.97;;;;;;;26.71;34.96;99739.69;4965941;28;21043;-73
2022/05/31 10:40:01;;;;;;;6.95;4.10;;;;;;;26.33;35.81;99737.97;5023181;28;20046;-74
2022/05/31 10:42:29;;;;;;;9.43;4.70;;;;;;;26.15;35.93;99727.44;4976877;28;20041;-72
2022/05/31 10:44:57;;;;;;;4.60;3.92;;;;;;;26.15;36.54;99740.22;4977522;28;20050;-74
2022/05/31 10:47:25;;;;;;;5.65;3.88;;;;;;;25.92;36.02;99749.47;4994235;28;20491;-74
2022/05/31 10:49:51;;;;;;;12.85;4.20;;;;;;;25.79;36.82;99751.75;5026029;28;20053;-73
2022/05/31 10:53:06;;;;;;;5.90;3.60;;;;;;;26.06;36.47;99758.09;5008565;28;20037;-72
2022/05/31 10:56:18;;;;;;;7.03;3.80;;;;;;;25.74;36.89;99757.16;5005685;28;20046;-74
2022/05/31 10:58:58;;;;;;;4.28;3.70;;;;;;;25.57;37.90;99759.91;4978309;28;20060;-72
2022/05/31 11:02:09;;;;;;;8.70;4.18;;;;;;;25.47;38.11;99773.38;5012483;28;20054;-74
2022/05/31 11:04:57;;;;;;;8.43;4.10;;;;;;;24.92;38.33;99791.53;4976947;28;20529;-74
2022/05/31 11:07:36;;;;;;;4.72;3.50;;;;;;;25.27;38.75;99775.78;4961625;28;20038;-71
2022/05/31 11:13:09;;;;;;;6.32;3.58;;;;;;;25.32;38.69;99775.03;5007846;28;20469;-73
2022/05/31 11:15:52;;;;;;;8.90;3.58;;;;;;;25.16;39.30;99759.53;4993194;28;20848;-72
2022/05/31 11:18:24;;;;;;;5.75;3.92;;;;;;;25.06;39.27;99770.28;5009672;28;20120;-73
2022/05/31 11:21:17;;;;;;;3.85;3.25;;;;;;;24.86;40.01;99770.78;5010773;28;20041;-69
2022/05/31 11:24:01;;;;;;;8.80;3.90;;;;;;;24.89;40.02;99770.28;4965098;28;20503;-71
2022/05/31 11:26:58;;;;;;;13.10;3.38;;;;;;;25.17;39.30;99762.00;4997637;28;20153;-73
2022/05/31 11:29:48;;;;;;;5.70;3.25;;;;;;;25.46;38.84;99771.75;4970469;28;20033;-72
2022/05/31 11:32:30;;;;;;;6.70;3.30;;;;;;;25.63;38.29;99771.69;5021247;28;20045;-73
2022/05/31 11:35:30;;;;;;;6.47;3.03;;;;;;;25.36;39.05;99770.75;5012976;28;20132;-73
2022/05/31 11:38:28;;;;;;;5.25;3.13;;;;;;;25.34;39.32;99772.91;5029487;28;20114;-73
2022/05/31 11:41:03;;;;;;;7.55;3.20;;;;;;;24.93;39.94;99771.44;5028467;28;20046;-70
2022/05/31 11:43:47;;;;;;;4.30;3.38;;;;;;;25.31;39.56;99767.94;5027132;28;20561;-72
2022/05/31 11:46:39;;;;;;;5.75;3.72;;;;;;;25.43;39.16;99755.88;5011316;28;20057;-72
2022/05/31 11:49:07;;;;;;;4.15;3.28;;;;;;;24.92;40.56;99768.97;5011478;28;20053;-73
2022/05/31 11:51:37;;;;;;;6.38;3.20;;;;;;;25.13;39.76;99750.00;5011696;28;20231;-72
2022/05/31 11:54:21;;;;;;;4.40;3.25;;;;;;;25.36;40.20;99741.66;4994660;28;20045;-72
2022/05/31 11:57:02;;;;;;;5.65;3.40;;;;;;;25.58;40.23;99758.84;5028408;28;20049;-72
2022/05/31 11:59:31;;;;;;;;;;;;;;;25.77;39.90;99760.16;5000861;28;20209;-73
2022/05/31 12:02:25;;;;;;;4.68;3.50;;;;;;;25.37;40.78;99761.53;4972681;28;20386;-72
2022/05/31 12:05:07;;;;;;;4.97;3.75;;;;;;;25.48;40.97;99761.41;4972695;28;20061;-73
2022/05/31 12:07:40;;;;;;;4.70;3.50;;;;;;;25.69;40.44;99759.78;4988662;28;20053;-71
2022/05/31 12:10:27;;;;;;;5.57;3.08;;;;;;;25.80;39.94;99761.56;4956559;28;20049;-72
2022/05/31 12:12:57;;;;;;;9.23;3.28;;;;;;;25.58;40.63;99767.00;4987930;28;20042;-72
2022/05/31 12:15:25;;;;;;;8.75;3.88;;;;;;;25.50;41.16;99751.09;5007877;28;20438;-73
2022/05/31 12:17:59;;;;;;;8.65;4.00;;;;;;;25.28;41.27;99716.78;5015693;28;20038;-74
2022/05/31 12:20:31;;;;;;;8.15;3.67;;;;;;;25.41;40.64;99736.31;5013647;28;20045;-72
2022/05/31 12:23:10;;;;;;;11.63;4.20;;;;;;;25.63;40.24;99753.44;5016247;28;20042;-73
2022/05/31 12:25:41;;;;;;;20.25;4.40;;;;;;;25.65;40.76;99754.03;5016829;28;20153;-72
2022/05/31 12:28:09;;;;;;;;;;;;;;;25.99;39.92;99766.47;4999787;28;20050;-72
2022/05/31 12:31:05;;;;;;;17.92;4.28;;;;;;;26.03;39.71;99751.25;4966864;28;20020;-73
2022/05/31 12:33:46;;;;;;;10.23;3.63;;;;;;;25.93;39.68;99753.00;4987215;28;20038;-72